createdAt,value
2017-11-05T00:01:46.436Z,26.90
2017-11-05T00:04:16.457Z,26.70
2017-11-05T00:06:44.029Z,25.00
2017-11-05T00:09:11.621Z,24.80
2017-11-05T00:11:39.957Z,28.90
2017-11-05T00:14:07.549Z,25.77
2017-11-05T00:16:35.880Z,26.93
2017-11-05T00:19:03.463Z,27.77
2017-11-05T00:21:31.023Z,25.10
2017-11-05T00:23:58.645Z,25.87
2017-11-05T00:26:26.208Z,26.63
2017-11-05T00:28:53.776Z,27.80
2017-11-05T00:31:21.368Z,26.48
2017-11-05T00:33:48.931Z,25.30
2017-11-05T00:36:16.524Z,24.83
2017-11-05T00:38:44.856Z,28.97
2017-11-05T00:41:12.456Z,26.87
2017-11-05T00:43:40.788Z,28.57
2017-11-05T00:46:08.376Z,24.77
2017-11-05T00:48:35.935Z,26.07
2017-11-05T00:51:03.600Z,27.87
2017-11-05T00:53:31.164Z,27.87
2017-11-05T00:55:58.740Z,25.03
2017-11-05T00:58:27.101Z,26.17
2017-11-05T01:00:54.864Z,27.00
2017-11-05T01:03:23.196Z,27.00
2017-11-05T01:05:50.760Z,26.80
2017-11-05T01:08:18.349Z,26.52
2017-11-05T01:10:46.132Z,24.63
2017-11-05T01:13:16.114Z,27.35
2017-11-05T01:15:43.712Z,23.67
2017-11-05T01:18:11.300Z,26.47
2017-11-05T01:20:39.640Z,27.87
2017-11-05T01:23:07.228Z,25.80
2017-11-05T01:25:35.563Z,24.83
2017-11-05T01:28:03.157Z,26.90
2017-11-05T01:30:30.737Z,27.90
2017-11-05T01:32:59.091Z,23.73
2017-11-05T01:35:26.657Z,26.40
2017-11-05T01:37:54.261Z,27.30
2017-11-05T01:40:21.824Z,26.33
2017-11-05T01:42:49.388Z,25.80
2017-11-05T01:45:16.988Z,24.37
2017-11-05T01:47:44.556Z,27.97
2017-11-05T01:50:14.577Z,25.30
2017-11-05T01:52:43.661Z,26.53
2017-11-05T01:55:11.260Z,29.65
2017-11-05T01:57:38.832Z,29.00
2017-11-05T02:00:06.420Z,31.60
2017-11-05T02:02:33.996Z,30.77
2017-11-05T02:05:01.584Z,28.10
2017-11-05T02:07:29.916Z,24.83
2017-11-05T02:09:57.679Z,30.23
2017-11-05T02:12:25.546Z,28.60
2017-11-05T02:14:54.335Z,27.30
2017-11-05T02:17:22.305Z,30.10
2017-11-05T02:19:49.936Z,27.80
2017-11-05T02:22:17.585Z,30.30
2017-11-05T02:24:46.148Z,28.70
2017-11-05T02:27:14.646Z,30.10
2017-11-05T02:29:42.205Z,30.57
2017-11-05T02:32:09.796Z,29.17
2017-11-05T02:34:37.363Z,31.30
2017-11-05T02:37:04.956Z,29.40
2017-11-05T02:39:32.533Z,31.13
2017-11-05T02:42:00.129Z,29.37
2017-11-05T02:44:27.704Z,30.80
2017-11-05T02:46:55.320Z,31.60
2017-11-05T02:49:22.893Z,33.00
2017-11-05T02:51:50.544Z,28.70
2017-11-05T02:54:18.901Z,29.07
2017-11-05T02:56:46.468Z,30.37
2017-11-05T02:59:15.804Z,31.03
2017-11-05T03:01:44.141Z,30.57
2017-11-05T03:04:11.705Z,30.60
2017-11-05T03:06:39.396Z,32.77
2017-11-05T03:09:06.964Z,29.65
2017-11-05T03:11:35.324Z,29.55
2017-11-05T03:14:02.893Z,29.30
2017-11-05T03:16:31.248Z,29.40
2017-11-05T03:18:58.813Z,29.37
2017-11-05T03:21:26.489Z,30.60
2017-11-05T03:23:55.572Z,30.00
2017-11-05T03:26:23.348Z,29.37
2017-11-05T03:28:50.912Z,29.27
2017-11-05T03:31:18.760Z,26.27
2017-11-05T03:33:46.344Z,27.63
2017-11-05T03:36:14.836Z,29.37
2017-11-05T03:38:43.272Z,28.53
2017-11-05T03:41:10.844Z,26.93
2017-11-05T03:43:38.524Z,26.13
2017-11-05T03:46:06.084Z,28.23
2017-11-05T03:48:33.681Z,28.70
2017-11-05T03:51:01.253Z,26.53
2017-11-05T03:53:29.008Z,27.00
2017-11-05T03:55:56.580Z,25.23
2017-11-05T03:58:24.153Z,25.40
2017-11-05T04:00:51.753Z,28.73
2017-11-05T04:03:19.321Z,27.67
2017-11-05T04:05:46.912Z,25.33
2017-11-05T04:08:15.589Z,27.47
2017-11-05T04:10:43.945Z,26.47
2017-11-05T04:13:11.508Z,27.30
2017-11-05T04:15:39.092Z,25.43
2017-11-05T04:18:07.427Z,27.80
2017-11-05T04:20:35.024Z,24.53
2017-11-05T04:23:03.357Z,26.40
2017-11-05T04:25:30.948Z,26.25
2017-11-05T04:27:58.608Z,27.10
2017-11-05T04:30:26.941Z,26.93
2017-11-05T04:32:54.523Z,26.70
2017-11-05T04:35:22.089Z,26.43
2017-11-05T04:37:49.685Z,29.00
2017-11-05T04:40:18.033Z,28.73
2017-11-05T04:42:45.624Z,28.05
2017-11-05T04:45:14.877Z,26.57
2017-11-05T04:47:42.567Z,26.53
2017-11-05T04:50:10.137Z,29.43
2017-11-05T04:52:37.706Z,28.00
2017-11-05T04:55:06.068Z,29.73
2017-11-05T04:57:33.632Z,30.12
2017-11-05T05:00:01.220Z,28.83
2017-11-05T05:02:29.553Z,27.53
2017-11-05T05:04:57.143Z,26.63
2017-11-05T05:07:25.481Z,24.58
2017-11-05T05:09:53.173Z,25.33
2017-11-05T05:12:21.840Z,26.48
2017-11-05T05:14:49.629Z,25.63
2017-11-05T05:17:17.187Z,23.80
2017-11-05T05:19:44.760Z,22.52
2017-11-05T05:22:13.117Z,23.10
2017-11-05T05:24:40.697Z,22.53
2017-11-05T05:27:08.280Z,23.43
2017-11-05T05:29:35.856Z,21.57
2017-11-05T05:32:03.440Z,23.50
2017-11-05T05:34:31.008Z,21.20
2017-11-05T05:36:58.693Z,21.70
2017-11-05T05:39:26.256Z,21.47
2017-11-05T05:41:53.848Z,21.27
2017-11-05T05:44:21.476Z,21.52
2017-11-05T05:46:50.574Z,23.20
2017-11-05T05:49:18.132Z,22.30
2017-11-05T05:51:45.729Z,24.52
2017-11-05T05:54:15.368Z,22.30
2017-11-05T05:56:42.963Z,23.90
2017-11-05T05:59:10.525Z,23.80
2017-11-05T06:01:38.113Z,23.23
2017-11-05T06:04:06.444Z,25.17
2017-11-05T06:06:34.033Z,21.73
2017-11-05T06:09:01.596Z,23.07
2017-11-05T06:11:29.981Z,23.90
2017-11-05T06:13:58.312Z,24.40
2017-11-05T06:16:25.872Z,23.70
2017-11-05T06:18:53.466Z,24.93
2017-11-05T06:21:21.033Z,25.20
2017-11-05T06:23:49.408Z,25.67
2017-11-05T06:26:16.972Z,24.08
2017-11-05T06:28:45.349Z,24.93
2017-11-05T06:31:14.661Z,23.48
2017-11-05T06:33:43.229Z,23.73
2017-11-05T06:36:10.892Z,22.80
2017-11-05T06:38:38.460Z,24.80
2017-11-05T06:41:06.060Z,23.70
2017-11-05T06:43:33.677Z,24.23
2017-11-05T06:46:01.269Z,24.83
2017-11-05T06:48:28.901Z,25.17
2017-11-05T06:50:56.492Z,25.10
2017-11-05T06:53:24.840Z,24.10
2017-11-05T06:55:52.432Z,27.27
2017-11-05T06:58:20.769Z,26.57
2017-11-05T07:00:48.384Z,27.97
2017-11-05T07:03:17.109Z,27.43
2017-11-05T07:05:44.672Z,25.65
2017-11-05T07:08:12.269Z,26.73
2017-11-05T07:10:40.600Z,28.30
2017-11-05T07:13:08.188Z,28.90
2017-11-05T07:15:35.756Z,27.63
2017-11-05T07:18:03.348Z,28.03
2017-11-05T07:20:30.912Z,26.70
2017-11-05T07:22:58.503Z,27.50
2017-11-05T07:25:26.069Z,25.48
2017-11-05T07:27:53.659Z,25.77
2017-11-05T07:30:21.233Z,25.17
2017-11-05T07:32:49.584Z,24.67
2017-11-05T07:35:17.144Z,26.10
2017-11-05T07:37:44.736Z,26.47
2017-11-05T07:40:13.984Z,28.07
2017-11-05T07:42:41.572Z,25.20
2017-11-05T07:45:09.241Z,26.10
2017-11-05T07:47:36.831Z,25.03
2017-11-05T07:50:05.204Z,24.57
2017-11-05T07:52:33.576Z,27.47
2017-11-05T07:55:02.272Z,26.00
2017-11-05T07:57:30.605Z,27.23
2017-11-05T07:59:58.197Z,25.53
2017-11-05T08:02:26.524Z,27.47
2017-11-05T08:04:54.108Z,26.73
2017-11-05T08:07:21.672Z,25.20
2017-11-05T08:09:49.452Z,25.50
2017-11-05T08:12:17.013Z,24.03
2017-11-05T08:14:44.585Z,24.83
2017-11-05T08:17:13.972Z,23.37
2017-11-05T08:19:41.548Z,24.43
2017-11-05T08:22:09.907Z,24.07
2017-11-05T08:24:37.581Z,24.67
2017-11-05T08:27:05.177Z,23.60
2017-11-05T08:29:32.796Z,22.33
2017-11-05T08:32:00.421Z,23.60
2017-11-05T08:34:28.024Z,24.30
2017-11-05T08:36:55.600Z,24.83
2017-11-05T08:39:24.068Z,24.17
2017-11-05T08:41:51.633Z,23.97
2017-11-05T08:44:20.108Z,24.77
2017-11-05T08:46:47.681Z,22.70
2017-11-05T08:49:16.276Z,23.37
2017-11-05T08:51:44.613Z,22.50
2017-11-05T08:54:13.160Z,23.53
2017-11-05T08:56:40.733Z,22.97
2017-11-05T08:59:08.299Z,23.37
2017-11-05T09:01:35.912Z,21.93
2017-11-05T09:04:04.296Z,25.50
2017-11-05T09:06:32.676Z,23.07
2017-11-05T09:09:01.140Z,23.53
2017-11-05T09:11:28.940Z,22.98
2017-11-05T09:13:56.568Z,22.50
2017-11-05T09:16:24.232Z,21.77
2017-11-05T09:18:51.896Z,22.83
2017-11-05T09:21:19.460Z,22.52
2017-11-05T09:23:47.081Z,21.60
2017-11-05T09:26:15.576Z,22.47
2017-11-05T09:28:43.144Z,22.30
2017-11-05T09:31:10.757Z,22.73
2017-11-05T09:33:38.327Z,22.30
2017-11-05T09:36:06.039Z,21.50
2017-11-05T09:38:33.608Z,21.15
2017-11-05T09:41:01.185Z,21.23
2017-11-05T09:43:29.648Z,20.88
2017-11-05T09:45:57.265Z,22.00
2017-11-05T09:48:24.880Z,21.77
2017-11-05T09:50:53.215Z,21.23
2017-11-05T09:53:20.840Z,22.90
2017-11-05T09:55:49.178Z,22.47
2017-11-05T09:58:16.851Z,23.80
2017-11-05T10:00:44.441Z,24.70
2017-11-05T10:03:13.733Z,22.53
2017-11-05T10:05:42.097Z,22.60
2017-11-05T10:08:09.668Z,22.90
2017-11-05T10:10:38.029Z,23.03
2017-11-05T10:13:05.699Z,23.40
2017-11-05T10:15:33.289Z,24.17
2017-11-05T10:18:00.857Z,23.40
2017-11-05T10:20:28.449Z,21.57
2017-11-05T10:22:56.017Z,23.07
2017-11-05T10:25:23.609Z,21.87
2017-11-05T10:27:51.953Z,20.90
2017-11-05T10:30:19.537Z,23.70
2017-11-05T10:32:47.925Z,23.03
2017-11-05T10:35:17.231Z,21.80
2017-11-05T10:37:45.569Z,23.23
2017-11-05T10:40:14.856Z,23.70
2017-11-05T10:42:42.460Z,22.53
2017-11-05T10:45:10.125Z,24.30
2017-11-05T10:47:37.696Z,24.10
2017-11-05T10:50:06.092Z,20.53
2017-11-05T10:52:34.728Z,22.52
2017-11-05T10:55:02.321Z,23.60
2017-11-05T10:57:30.664Z,22.70
2017-11-05T10:59:58.353Z,22.40
2017-11-05T11:02:25.920Z,21.73
2017-11-05T11:04:53.512Z,21.67
2017-11-05T11:07:21.085Z,20.73
2017-11-05T11:09:48.688Z,22.73
2017-11-05T11:12:17.872Z,22.95
2017-11-05T11:14:45.487Z,21.80
2017-11-05T11:17:15.545Z,22.27
2017-11-05T11:19:43.446Z,21.00
2017-11-05T11:22:11.055Z,24.20
2017-11-05T11:24:38.634Z,19.50
2017-11-05T11:27:06.234Z,21.20
2017-11-05T11:29:33.927Z,20.43
2017-11-05T11:32:01.524Z,20.50
2017-11-05T11:34:29.128Z,20.42
2017-11-05T11:36:57.589Z,21.00
2017-11-05T11:39:25.192Z,20.05
2017-11-05T11:41:52.804Z,20.40
2017-11-05T11:44:20.371Z,20.33
2017-11-05T11:46:47.969Z,20.63
2017-11-05T11:49:17.565Z,19.40
2017-11-05T11:51:46.540Z,22.53
2017-11-05T11:54:15.025Z,22.03
2017-11-05T11:56:42.615Z,23.60
2017-11-05T11:59:10.193Z,22.03
2017-11-05T12:01:37.828Z,22.30
2017-11-05T12:04:06.197Z,23.97
2017-11-05T12:06:34.584Z,17.47
2017-11-05T12:09:02.928Z,7.60
2017-11-05T12:11:30.789Z,4.72
2017-11-05T12:13:59.086Z,3.37
2017-11-05T12:16:26.811Z,3.92
2017-11-05T12:18:54.404Z,4.40
2017-11-05T12:21:21.964Z,2.60
2017-11-05T12:23:49.638Z,3.17
2017-11-05T12:26:17.206Z,2.63
2017-11-05T12:28:45.561Z,3.03
2017-11-05T12:31:14.877Z,3.13
2017-11-05T12:33:42.469Z,3.13
2017-11-05T12:36:10.096Z,3.33
2017-11-05T12:38:37.725Z,3.10
2017-11-05T12:41:05.293Z,3.00
2017-11-05T12:43:33.006Z,3.28
2017-11-05T12:46:00.588Z,3.20
2017-11-05T12:48:28.310Z,3.30
2017-11-05T12:50:55.951Z,3.37
2017-11-05T12:53:23.707Z,4.12
2017-11-05T12:55:51.320Z,3.10
2017-11-05T12:58:19.647Z,3.40
2017-11-05T13:00:47.456Z,3.90
2017-11-05T13:03:17.568Z,4.03
2017-11-05T13:05:45.128Z,3.17
2017-11-05T13:08:12.749Z,3.60
2017-11-05T13:10:40.346Z,3.57
2017-11-05T13:13:09.443Z,3.60
2017-11-05T13:15:37.205Z,4.13
2017-11-05T13:18:04.772Z,4.70
2017-11-05T13:20:32.974Z,6.30
2017-11-05T13:23:00.680Z,5.93
2017-11-05T13:25:28.248Z,6.28
2017-11-05T13:27:55.844Z,4.50
2017-11-05T13:30:24.383Z,3.90
2017-11-05T13:32:52.142Z,2.90
2017-11-05T13:35:19.812Z,3.10
2017-11-05T13:37:47.569Z,3.37
2017-11-05T13:40:16.408Z,2.90
2017-11-05T13:42:44.753Z,2.73
2017-11-05T13:45:13.355Z,3.37
2017-11-05T13:47:41.716Z,4.00
2017-11-05T13:50:09.300Z,4.43
2017-11-05T13:52:36.856Z,3.93
2017-11-05T13:55:04.506Z,3.53
2017-11-05T13:57:32.068Z,3.25
2017-11-05T13:59:59.660Z,2.80
2017-11-05T14:02:27.984Z,2.27
2017-11-05T14:04:55.564Z,1.97
2017-11-05T14:07:23.128Z,2.03
2017-11-05T14:09:50.910Z,2.13
2017-11-05T14:12:18.503Z,2.17
2017-11-05T14:14:46.152Z,1.97
2017-11-05T14:17:16.131Z,1.85
2017-11-05T14:19:43.741Z,2.30
2017-11-05T14:22:12.065Z,2.23
2017-11-05T14:24:39.821Z,2.00
2017-11-05T14:27:07.392Z,1.83
2017-11-05T14:29:35.166Z,2.20
2017-11-05T14:32:02.792Z,1.92
2017-11-05T14:34:30.367Z,1.95
2017-11-05T14:36:58.004Z,2.60
2017-11-05T14:39:25.596Z,2.27
2017-11-05T14:41:53.278Z,2.70
2017-11-05T14:44:22.365Z,2.47
2017-11-05T14:46:49.957Z,2.30
2017-11-05T14:49:18.311Z,2.60
2017-11-05T14:51:45.947Z,1.90
2017-11-05T14:54:15.193Z,2.70
2017-11-05T14:56:42.922Z,2.57
2017-11-05T14:59:10.483Z,3.17
2017-11-05T15:01:38.226Z,3.53
2017-11-05T15:04:05.797Z,2.57
2017-11-05T15:06:33.600Z,2.10
2017-11-05T15:09:01.157Z,2.23
2017-11-05T15:11:28.720Z,2.03
2017-11-05T15:13:56.307Z,2.40
2017-11-05T15:16:23.884Z,2.00
2017-11-05T15:18:51.486Z,2.00
2017-11-05T15:21:19.073Z,2.30
2017-11-05T15:23:46.633Z,2.70
2017-11-05T15:26:16.436Z,2.80
2017-11-05T15:28:44.000Z,2.70
2017-11-05T15:31:12.352Z,2.50
2017-11-05T15:33:39.908Z,2.97
2017-11-05T15:36:07.494Z,3.67
2017-11-05T15:38:35.060Z,3.60
2017-11-05T15:41:02.644Z,4.00
2017-11-05T15:43:30.969Z,4.57
2017-11-05T15:45:58.552Z,4.60
2017-11-05T15:48:26.116Z,4.12
2017-11-05T15:50:53.704Z,4.40
2017-11-05T15:53:22.060Z,3.12
2017-11-05T15:55:49.653Z,4.57
2017-11-05T15:58:17.980Z,3.47
2017-11-05T16:00:45.592Z,2.73
2017-11-05T16:03:15.731Z,2.95
2017-11-05T16:05:43.399Z,3.10
2017-11-05T16:08:11.075Z,2.63
2017-11-05T16:10:38.792Z,2.80
2017-11-05T16:13:07.119Z,2.90
2017-11-05T16:15:34.727Z,3.17
2017-11-05T16:18:03.056Z,2.93
2017-11-05T16:20:30.762Z,2.05
2017-11-05T16:22:58.483Z,2.47
2017-11-05T16:25:26.884Z,2.75
2017-11-05T16:27:54.560Z,2.37
2017-11-05T16:30:23.204Z,2.87
2017-11-05T16:32:50.772Z,2.40
2017-11-05T16:35:18.361Z,2.53
2017-11-05T16:37:45.972Z,2.70
2017-11-05T16:40:15.572Z,2.73
2017-11-05T16:42:43.187Z,2.00
2017-11-05T16:45:10.783Z,2.20
2017-11-05T16:47:39.113Z,2.20
2017-11-05T16:50:06.936Z,1.83
2017-11-05T16:52:35.281Z,1.37
2017-11-05T16:55:03.143Z,3.10
2017-11-05T16:57:30.711Z,1.60
2017-11-05T16:59:58.268Z,2.30
2017-11-05T17:02:26.119Z,1.97
2017-11-05T17:04:54.623Z,1.80
2017-11-05T17:07:22.352Z,2.60
2017-11-05T17:09:50.836Z,1.70
2017-11-05T17:12:18.561Z,3.40
2017-11-05T17:14:47.116Z,3.20
2017-11-05T17:17:15.628Z,2.20
2017-11-05T17:19:44.000Z,2.20
2017-11-05T17:22:12.348Z,2.17
2017-11-05T17:24:39.916Z,2.40
2017-11-05T17:27:08.268Z,1.90
2017-11-05T17:29:35.960Z,2.10
2017-11-05T17:32:03.796Z,1.35
2017-11-05T17:34:31.460Z,2.50
2017-11-05T17:36:59.327Z,1.80
2017-11-05T17:39:26.916Z,2.40
2017-11-05T17:41:54.711Z,2.27
2017-11-05T17:44:23.593Z,2.10
2017-11-05T17:46:52.040Z,1.90
2017-11-05T17:49:20.528Z,2.50
2017-11-05T17:51:48.144Z,1.63
2017-11-05T17:54:17.189Z,2.03
2017-11-05T17:56:44.820Z,2.40
2017-11-05T17:59:12.401Z,2.33
2017-11-05T18:01:40.016Z,1.70
2017-11-05T18:04:07.929Z,2.23
2017-11-05T18:06:35.489Z,2.37
2017-11-05T18:09:03.072Z,1.83
2017-11-05T18:11:30.698Z,2.00
2017-11-05T18:13:58.288Z,1.97
2017-11-05T18:16:25.852Z,2.30
2017-11-05T18:18:53.603Z,1.97
2017-11-05T18:21:21.164Z,2.55
2017-11-05T18:23:48.749Z,1.80
2017-11-05T18:26:16.857Z,2.10
2017-11-05T18:28:44.761Z,2.90
2017-11-05T18:31:12.391Z,2.87
2017-11-05T18:33:40.056Z,3.33
2017-11-05T18:36:07.636Z,2.90
2017-11-05T18:38:35.220Z,3.17
2017-11-05T18:41:02.781Z,3.57
2017-11-05T18:43:30.364Z,2.97
2017-11-05T18:45:58.747Z,4.70
2017-11-05T18:48:27.271Z,4.37
2017-11-05T18:50:55.667Z,3.40
2017-11-05T18:53:23.235Z,3.63
2017-11-05T18:55:50.824Z,3.30
2017-11-05T18:58:19.207Z,3.33
2017-11-05T19:00:47.612Z,3.50
2017-11-05T19:03:18.500Z,3.10
2017-11-05T19:05:46.585Z,3.73
2017-11-05T19:08:16.596Z,3.62
2017-11-05T19:10:44.178Z,3.43
2017-11-05T19:13:12.556Z,4.43
2017-11-05T19:15:41.053Z,3.80
2017-11-05T19:18:08.663Z,5.33
2017-11-05T19:20:36.254Z,6.40
2017-11-05T19:23:04.067Z,6.63
2017-11-05T19:25:31.711Z,6.90
2017-11-05T19:27:59.273Z,6.33
2017-11-05T19:30:26.868Z,7.65
2017-11-05T19:32:54.645Z,7.82
2017-11-05T19:35:22.284Z,6.73
2017-11-05T19:37:49.849Z,7.03
2017-11-05T19:40:17.491Z,7.60
2017-11-05T19:42:45.105Z,7.43
2017-11-05T19:45:12.748Z,9.03
2017-11-05T19:47:40.390Z,8.53
2017-11-05T19:50:08.364Z,9.67
2017-11-05T19:52:36.000Z,10.80
2017-11-05T19:55:03.699Z,12.70
2017-11-05T19:57:31.385Z,13.27
2017-11-05T19:59:59.179Z,12.20
2017-11-05T20:02:27.595Z,14.55
2017-11-05T20:04:55.164Z,21.90
2017-11-05T20:07:22.819Z,14.87
2017-11-05T20:09:50.520Z,17.17
2017-11-05T20:12:18.164Z,13.00
2017-11-05T20:14:46.024Z,11.70
2017-11-05T20:17:15.643Z,10.80
2017-11-05T20:19:43.864Z,11.70
2017-11-05T20:22:12.245Z,10.40
2017-11-05T20:24:40.643Z,8.90
2017-11-05T20:27:08.330Z,10.27
2017-11-05T20:29:35.989Z,11.77
2017-11-05T20:32:03.557Z,14.93
2017-11-05T20:34:31.251Z,16.40
2017-11-05T20:36:59.689Z,22.00
2017-11-05T20:39:27.281Z,10.07
2017-11-05T20:41:55.125Z,16.10
2017-11-05T20:44:22.992Z,12.50
2017-11-05T20:46:50.966Z,11.83
2017-11-05T20:49:18.891Z,14.53
2017-11-05T20:51:46.500Z,19.90
2017-11-05T20:54:15.043Z,16.07
2017-11-05T20:56:42.744Z,13.57
2017-11-05T20:59:10.398Z,14.13
2017-11-05T21:01:38.037Z,16.63
2017-11-05T21:04:05.728Z,16.50
2017-11-05T21:06:33.821Z,15.20
2017-11-05T21:09:01.436Z,15.03
2017-11-05T21:11:29.076Z,14.30
2017-11-05T21:13:57.459Z,10.17
2017-11-05T21:16:25.820Z,9.48
2017-11-05T21:18:53.386Z,16.17
2017-11-05T21:21:21.004Z,23.60
2017-11-05T21:23:48.623Z,25.40
2017-11-05T21:26:18.076Z,22.20
2017-11-05T21:28:46.015Z,30.43
2017-11-05T21:31:15.824Z,21.12
2017-11-05T21:33:43.422Z,10.87
2017-11-05T21:36:11.084Z,10.57
2017-11-05T21:38:38.705Z,18.00
2017-11-05T21:41:06.285Z,27.60
2017-11-05T21:43:34.066Z,29.23
2017-11-05T21:46:01.724Z,28.13
2017-11-05T21:48:29.425Z,24.87
2017-11-05T21:50:56.996Z,17.00
2017-11-05T21:53:24.752Z,15.37
2017-11-05T21:55:52.367Z,12.13
2017-11-05T21:58:19.988Z,13.23
2017-11-05T22:00:48.344Z,12.88
2017-11-05T22:03:16.836Z,13.60
2017-11-05T22:05:44.427Z,14.63
2017-11-05T22:08:13.734Z,15.50
2017-11-05T22:10:41.456Z,14.70
2017-11-05T22:13:09.025Z,15.80
2017-11-05T22:15:36.600Z,36.63
2017-11-05T22:18:04.961Z,41.67
2017-11-05T22:20:33.320Z,41.10
2017-11-05T22:23:00.907Z,41.53
2017-11-05T22:25:28.528Z,35.35
2017-11-05T22:27:56.100Z,31.77
2017-11-05T22:30:25.277Z,20.30
2017-11-05T22:32:52.884Z,21.53
2017-11-05T22:35:20.458Z,15.20
2017-11-05T22:37:48.817Z,12.70
2017-11-05T22:40:17.273Z,12.30
2017-11-05T22:42:44.859Z,11.70
2017-11-05T22:45:12.437Z,22.77
2017-11-05T22:47:40.192Z,22.43
2017-11-05T22:50:07.768Z,16.70
2017-11-05T22:52:36.138Z,15.30
2017-11-05T22:55:03.796Z,15.93
2017-11-05T22:57:32.888Z,18.50
2017-11-05T23:00:00.488Z,19.93
2017-11-05T23:02:28.056Z,20.40
2017-11-05T23:04:55.647Z,18.13
2017-11-05T23:07:23.226Z,17.75
2017-11-05T23:09:50.816Z,16.30
2017-11-05T23:12:19.151Z,14.40
2017-11-05T23:14:46.748Z,14.90
2017-11-05T23:17:14.563Z,13.60
2017-11-05T23:19:42.196Z,13.27
2017-11-05T23:22:09.763Z,11.53
2017-11-05T23:24:37.329Z,10.20
2017-11-05T23:27:04.921Z,11.03
2017-11-05T23:29:32.480Z,9.57
2017-11-05T23:32:00.064Z,8.73
2017-11-05T23:34:27.632Z,10.13
2017-11-05T23:36:55.388Z,10.80
2017-11-05T23:39:22.956Z,15.60
2017-11-05T23:41:50.521Z,14.20
2017-11-05T23:44:18.893Z,17.92
2017-11-05T23:46:46.465Z,14.57
2017-11-05T23:49:15.756Z,13.00
2017-11-05T23:51:43.591Z,13.37
2017-11-05T23:54:11.169Z,11.40
2017-11-05T23:56:38.952Z,11.33
2017-11-05T23:59:08.016Z,9.43
